createdAt,value
2022-10-24T00:01:29.523Z,61.21
2022-10-24T00:03:56.724Z,61.19
2022-10-24T00:06:24.032Z,61.14
2022-10-24T00:08:52.328Z,61.17
2022-10-24T00:11:23.250Z,61.10
2022-10-24T00:13:51.416Z,61.15
2022-10-24T00:16:18.991Z,61.08
2022-10-24T00:18:46.440Z,61.11
2022-10-24T00:21:14.412Z,61.12
2022-10-24T00:23:41.871Z,61.16
2022-10-24T00:26:10.763Z,61.21
2022-10-24T00:28:38.321Z,61.14
2022-10-24T00:31:08.550Z,61.25
2022-10-24T00:33:35.901Z,61.22
2022-10-24T00:36:03.356Z,61.21
2022-10-24T00:38:31.624Z,61.23
2022-10-24T00:40:58.557Z,61.27
2022-10-24T00:43:26.962Z,61.31
2022-10-24T00:45:55.390Z,61.21
2022-10-24T00:48:36.542Z,61.17
2022-10-24T00:51:14.798Z,60.99
2022-10-24T00:53:48.432Z,61.05
2022-10-24T00:56:22.913Z,60.99
2022-10-24T00:58:52.984Z,60.91
2022-10-24T01:01:20.337Z,60.91
2022-10-24T01:03:47.879Z,60.91
2022-10-24T01:06:32.753Z,60.91
2022-10-24T01:09:12.257Z,60.93
2022-10-24T01:11:57.451Z,60.94
2022-10-24T01:14:52.764Z,60.97
2022-10-24T01:17:57.494Z,60.92
2022-10-24T01:20:56.187Z,60.91
2022-10-24T01:24:13.003Z,60.90
2022-10-24T01:27:08.409Z,60.96
2022-10-24T01:29:51.503Z,60.93
2022-10-24T01:32:40.304Z,60.98
2022-10-24T01:35:45.340Z,61.03
2022-10-24T01:38:12.386Z,60.96
2022-10-24T01:40:59.394Z,60.97
2022-10-24T01:43:35.375Z,60.98
2022-10-24T01:46:07.229Z,60.94
2022-10-24T01:48:39.359Z,60.87
2022-10-24T01:51:12.469Z,60.90
2022-10-24T01:53:41.265Z,60.92
2022-10-24T01:56:14.071Z,60.80
2022-10-24T01:58:41.086Z,60.84
2022-10-24T02:01:14.945Z,60.81
2022-10-24T02:03:56.281Z,60.85
2022-10-24T02:06:34.408Z,60.87
2022-10-24T02:09:08.787Z,60.86
2022-10-24T02:11:37.826Z,60.85
2022-10-24T02:14:20.907Z,60.91
2022-10-24T02:16:49.328Z,60.89
2022-10-24T02:19:17.580Z,60.88
2022-10-24T02:22:17.312Z,60.91
2022-10-24T02:25:24.897Z,60.97
2022-10-24T02:28:35.972Z,61.13
2022-10-24T02:31:21.992Z,60.98
2022-10-24T02:33:51.936Z,61.06
2022-10-24T02:36:25.443Z,60.93
2022-10-24T02:38:54.271Z,60.98
2022-10-24T02:41:29.434Z,60.94
2022-10-24T02:43:58.735Z,60.79
2022-10-24T02:46:27.088Z,60.80
2022-10-24T02:48:58.851Z,60.84
2022-10-24T02:51:29.370Z,60.72
2022-10-24T02:53:58.161Z,60.76
2022-10-24T02:56:25.268Z,60.75
2022-10-24T02:58:52.363Z,60.76
2022-10-24T03:01:19.755Z,60.89
2022-10-24T03:03:47.068Z,60.82
2022-10-24T03:06:14.022Z,60.75
2022-10-24T03:08:42.496Z,60.75
2022-10-24T03:11:09.759Z,60.82
2022-10-24T03:13:39.353Z,60.85
2022-10-24T03:16:09.090Z,60.82
2022-10-24T03:18:38.780Z,60.78
2022-10-24T03:21:05.718Z,60.85
2022-10-24T03:23:32.791Z,60.86
2022-10-24T03:26:03.505Z,60.83
2022-10-24T03:28:31.988Z,60.89
2022-10-24T03:30:59.252Z,60.81
2022-10-24T03:33:26.898Z,60.81
2022-10-24T03:35:56.883Z,60.68
2022-10-24T03:38:24.584Z,60.66
2022-10-24T03:40:53.057Z,60.62
2022-10-24T03:43:20.264Z,60.65
2022-10-24T03:45:47.464Z,60.64
2022-10-24T03:48:16.878Z,60.61
2022-10-24T03:50:44.406Z,60.60
2022-10-24T03:53:11.586Z,60.66
2022-10-24T03:55:39.035Z,60.64
2022-10-24T03:58:06.098Z,60.60
2022-10-24T04:00:39.702Z,60.66
2022-10-24T04:03:14.930Z,60.70
2022-10-24T04:05:41.974Z,60.69
2022-10-24T04:08:09.457Z,60.65
2022-10-24T04:10:38.370Z,60.71
2022-10-24T04:13:05.366Z,60.83
2022-10-24T04:15:32.515Z,60.73
2022-10-24T04:18:02.327Z,60.77
2022-10-24T04:20:29.578Z,60.81
2022-10-24T04:22:57.176Z,60.84
2022-10-24T04:25:24.709Z,60.80
2022-10-24T04:27:51.606Z,60.80
2022-10-24T04:30:19.198Z,60.65
2022-10-24T04:32:46.591Z,60.63
2022-10-24T04:35:14.446Z,60.60
2022-10-24T04:37:41.405Z,60.57
2022-10-24T04:40:09.137Z,60.61
2022-10-24T04:42:36.182Z,60.61
2022-10-24T04:45:07.335Z,60.63
2022-10-24T04:47:34.794Z,60.59
2022-10-24T04:50:05.631Z,60.67
2022-10-24T04:52:33.455Z,60.68
2022-10-24T04:55:01.670Z,60.69
2022-10-24T04:57:28.713Z,60.69
2022-10-24T04:59:56.575Z,60.69
2022-10-24T05:02:23.771Z,60.72
2022-10-24T05:04:53.067Z,60.70
2022-10-24T05:07:22.162Z,60.84
2022-10-24T05:09:49.283Z,60.82
2022-10-24T05:14:47.378Z,60.87
2022-10-24T05:17:15.866Z,60.91
2022-10-24T05:19:42.874Z,61.08
2022-10-24T05:22:11.064Z,61.06
2022-10-24T05:24:39.350Z,61.01
2022-10-24T05:27:17.656Z,61.03
2022-10-24T05:29:46.883Z,61.01
2022-10-24T05:32:18.427Z,61.00
2022-10-24T05:34:49.549Z,60.99
2022-10-24T05:37:17.925Z,61.04
2022-10-24T05:39:48.323Z,61.03
2022-10-24T05:42:21.346Z,61.08
2022-10-24T05:44:52.382Z,61.10
2022-10-24T05:47:22.767Z,61.08
2022-10-24T05:49:55.016Z,61.12
2022-10-24T05:52:29.778Z,61.12
2022-10-24T05:55:08.819Z,61.13
2022-10-24T05:57:38.660Z,61.15
2022-10-24T06:00:09.334Z,61.14
2022-10-24T06:02:40.706Z,61.23
2022-10-24T06:05:09.212Z,61.23
2022-10-24T06:07:37.187Z,61.28
2022-10-24T06:10:08.170Z,61.21
2022-10-24T06:12:39.263Z,61.15
2022-10-24T06:15:11.029Z,61.10
2022-10-24T06:17:41.391Z,61.05
2022-10-24T06:20:10.372Z,60.98
2022-10-24T06:22:37.805Z,60.93
2022-10-24T06:25:05.465Z,60.94
2022-10-24T06:27:32.532Z,60.90
2022-10-24T06:29:59.674Z,60.87
2022-10-24T06:32:27.024Z,61.08
2022-10-24T06:35:00.103Z,61.09
2022-10-24T06:37:35.651Z,60.98
2022-10-24T06:40:13.799Z,61.08
2022-10-24T06:42:49.107Z,61.03
2022-10-24T06:45:26.603Z,61.04
2022-10-24T06:48:03.753Z,61.06
2022-10-24T06:50:42.529Z,61.06
2022-10-24T06:53:16.610Z,61.04
2022-10-24T06:55:52.478Z,60.98
2022-10-24T06:58:27.458Z,60.97
2022-10-24T07:01:02.357Z,60.91
2022-10-24T07:03:32.656Z,60.78
2022-10-24T07:06:00.087Z,60.78
2022-10-24T07:08:27.188Z,60.72
2022-10-24T07:10:54.420Z,60.60
2022-10-24T07:13:22.087Z,60.65
2022-10-24T07:15:49.128Z,60.65
2022-10-24T07:18:16.587Z,60.64
2022-10-24T07:20:43.539Z,60.73
2022-10-24T07:23:10.545Z,60.68
2022-10-24T07:25:42.052Z,60.65
2022-10-24T07:28:11.840Z,60.70
2022-10-24T07:30:40.253Z,60.77
2022-10-24T07:33:08.461Z,60.73
2022-10-24T07:35:35.466Z,60.81
2022-10-24T07:38:03.146Z,60.85
2022-10-24T07:40:32.830Z,60.80
2022-10-24T07:43:02.957Z,60.85
2022-10-24T07:45:35.404Z,60.88
2022-10-24T07:48:06.040Z,61.02
2022-10-24T07:50:35.647Z,61.02
2022-10-24T07:53:02.700Z,61.07
2022-10-24T07:55:30.260Z,61.02
2022-10-24T07:57:57.406Z,61.02
2022-10-24T08:00:35.105Z,60.96
2022-10-24T08:03:03.094Z,60.93
2022-10-24T08:05:30.231Z,60.89
2022-10-24T08:08:12.043Z,60.87
2022-10-24T08:10:45.277Z,60.95
2022-10-24T08:13:13.628Z,61.06
2022-10-24T08:15:42.715Z,61.03
2022-10-24T08:18:12.387Z,60.98
2022-10-24T08:20:39.438Z,61.13
2022-10-24T08:23:06.393Z,61.07
2022-10-24T08:25:33.489Z,61.12
2022-10-24T08:28:02.871Z,61.14
2022-10-24T08:30:32.347Z,61.19
2022-10-24T08:32:59.387Z,61.32
2022-10-24T08:35:26.742Z,61.28
2022-10-24T08:37:55.842Z,61.44
2022-10-24T08:40:22.774Z,61.50
2022-10-24T08:42:50.619Z,61.46
2022-10-24T08:45:29.578Z,61.41
2022-10-24T08:48:03.788Z,61.38
2022-10-24T08:50:33.812Z,61.34
2022-10-24T08:53:13.250Z,61.29
2022-10-24T08:55:50.336Z,61.28
2022-10-24T08:58:25.460Z,61.29
2022-10-24T09:00:56.718Z,61.23
2022-10-24T09:03:57.938Z,61.22
2022-10-24T09:06:27.885Z,61.25
2022-10-24T09:08:57.817Z,61.26
2022-10-24T09:11:50.262Z,61.25
2022-10-24T09:14:31.334Z,61.25
2022-10-24T09:17:11.627Z,61.33
2022-10-24T09:19:44.863Z,61.32
2022-10-24T09:22:12.668Z,61.35
2022-10-24T09:24:55.361Z,61.36
2022-10-24T09:27:25.941Z,61.41
2022-10-24T09:29:53.332Z,61.51
2022-10-24T09:32:23.561Z,61.40
2022-10-24T09:34:51.221Z,61.31
2022-10-24T09:37:42.841Z,61.32
2022-10-24T09:40:25.356Z,61.19
2022-10-24T09:43:14.632Z,61.20
2022-10-24T09:45:45.661Z,61.21
2022-10-24T09:48:25.863Z,61.24
2022-10-24T09:50:57.380Z,61.20
2022-10-24T09:53:36.305Z,61.22
2022-10-24T09:56:14.880Z,61.23
2022-10-24T09:58:44.226Z,61.23
2022-10-24T10:01:14.348Z,61.29
2022-10-24T10:04:01.229Z,61.19
2022-10-24T10:06:33.412Z,61.24
2022-10-24T10:09:00.929Z,61.28
2022-10-24T10:11:35.179Z,61.25
2022-10-24T10:14:03.263Z,61.36
2022-10-24T10:16:40.043Z,61.37
2022-10-24T10:19:14.464Z,61.44
2022-10-24T10:22:06.472Z,61.45
2022-10-24T10:24:39.712Z,61.41
2022-10-24T10:27:25.376Z,61.30
2022-10-24T10:30:19.466Z,61.26
2022-10-24T10:32:58.177Z,61.18
2022-10-24T10:35:50.212Z,61.18
2022-10-24T10:38:26.365Z,61.20
2022-10-24T10:41:04.081Z,61.10
2022-10-24T10:43:31.316Z,61.15
2022-10-24T10:46:40.247Z,61.09
2022-10-24T10:49:30.171Z,61.19
2022-10-24T10:52:14.281Z,61.26
2022-10-24T10:55:09.181Z,61.05
2022-10-24T10:58:01.155Z,61.18
2022-10-24T11:00:43.153Z,61.14
2022-10-24T11:03:10.671Z,61.14
2022-10-24T11:05:37.617Z,61.09
2022-10-24T11:08:19.709Z,61.06
2022-10-24T11:10:54.030Z,61.10
2022-10-24T11:13:34.187Z,61.14
2022-10-24T11:16:07.210Z,61.15
2022-10-24T11:18:42.520Z,61.15
2022-10-24T11:21:12.135Z,61.12
2022-10-24T11:24:14.091Z,61.09
2022-10-24T11:26:57.116Z,61.07
2022-10-24T11:29:46.308Z,61.08
2022-10-24T11:32:43.482Z,61.02
2022-10-24T11:35:19.706Z,60.99
2022-10-24T11:37:51.168Z,60.92
2022-10-24T11:40:23.015Z,60.80
2022-10-24T11:43:02.504Z,60.83
2022-10-24T11:45:59.620Z,60.89
2022-10-24T11:48:38.619Z,60.88
2022-10-24T11:51:19.805Z,60.89
2022-10-24T11:53:57.980Z,60.79
2022-10-24T11:56:34.968Z,60.87
2022-10-24T11:59:08.304Z,60.84
2022-10-24T12:01:54.593Z,60.83
2022-10-24T12:04:42.948Z,60.84
2022-10-24T12:07:22.090Z,60.81
2022-10-24T12:10:10.900Z,60.83
2022-10-24T12:13:05.827Z,60.88
2022-10-24T12:16:00.636Z,60.95
2022-10-24T12:18:31.598Z,60.95
2022-10-24T12:21:08.340Z,60.90
2022-10-24T12:23:36.716Z,60.93
2022-10-24T12:26:13.375Z,60.90
2022-10-24T12:28:41.667Z,60.95
2022-10-24T12:31:21.018Z,60.83
2022-10-24T12:34:19.802Z,60.84
2022-10-24T12:37:09.903Z,60.74
2022-10-24T12:39:58.744Z,60.85
2022-10-24T12:42:25.687Z,60.73
2022-10-24T12:45:12.918Z,60.66
2022-10-24T12:48:04.022Z,60.68
2022-10-24T12:50:30.953Z,60.66
2022-10-24T12:53:40.819Z,60.69
2022-10-24T12:56:12.318Z,60.73
2022-10-24T12:58:43.114Z,60.67
2022-10-24T13:01:27.584Z,60.67
2022-10-24T13:04:26.769Z,60.72
2022-10-24T13:07:12.253Z,60.71
2022-10-24T13:10:11.352Z,60.78
2022-10-24T13:13:17.080Z,60.78
2022-10-24T13:16:10.273Z,60.87
2022-10-24T13:18:50.730Z,60.81
2022-10-24T13:21:22.080Z,60.91
2022-10-24T13:23:50.349Z,60.79
2022-10-24T13:26:38.701Z,60.85
2022-10-24T13:29:12.650Z,60.82
2022-10-24T13:31:42.302Z,60.84
2022-10-24T13:34:26.874Z,60.80
2022-10-24T13:37:24.198Z,60.83
2022-10-24T13:39:57.508Z,60.83
2022-10-24T13:42:39.131Z,60.80
2022-10-24T13:45:16.906Z,60.69
2022-10-24T13:47:48.874Z,60.75
2022-10-24T13:50:22.689Z,60.82
2022-10-24T13:52:59.293Z,60.88
2022-10-24T13:55:32.021Z,60.95
2022-10-24T13:58:07.179Z,61.03
2022-10-24T14:00:38.898Z,61.00
2022-10-24T14:03:17.133Z,61.04
2022-10-24T14:05:53.320Z,61.16
2022-10-24T14:08:23.322Z,61.16
2022-10-24T14:10:53.656Z,61.16
2022-10-24T14:13:23.790Z,61.29
2022-10-24T14:15:54.677Z,61.33
2022-10-24T14:18:23.294Z,61.36
2022-10-24T14:21:05.303Z,61.28
2022-10-24T14:23:39.013Z,61.28
2022-10-24T14:26:21.302Z,61.25
2022-10-24T14:28:52.029Z,61.15
2022-10-24T14:31:20.823Z,61.10
2022-10-24T14:33:54.321Z,61.09
2022-10-24T14:36:30.887Z,61.12
2022-10-24T14:39:04.098Z,61.20
2022-10-24T14:41:42.559Z,61.20
2022-10-24T14:44:15.998Z,61.34
2022-10-24T14:46:45.497Z,61.23
2022-10-24T14:49:27.695Z,61.25
2022-10-24T14:51:58.331Z,61.25
2022-10-24T14:54:33.799Z,61.28
2022-10-24T14:57:03.379Z,61.49
2022-10-24T14:59:36.084Z,61.38
2022-10-24T15:02:25.800Z,61.57
2022-10-24T15:05:12.858Z,61.68
2022-10-24T15:07:44.926Z,61.73
2022-10-24T15:10:19.555Z,61.64
2022-10-24T15:12:54.192Z,61.63
2022-10-24T15:15:34.460Z,61.56
2022-10-24T15:18:22.163Z,61.50
2022-10-24T15:20:53.276Z,61.40
2022-10-24T15:23:27.475Z,61.43
2022-10-24T15:26:10.471Z,61.52
2022-10-24T15:29:03.910Z,61.46
2022-10-24T15:31:33.921Z,61.56
2022-10-24T15:34:01.268Z,61.55
2022-10-24T15:36:34.985Z,61.58
2022-10-24T15:39:10.044Z,61.69
2022-10-24T15:41:39.105Z,61.63
2022-10-24T15:44:18.999Z,61.79
2022-10-24T15:46:47.141Z,61.84
2022-10-24T15:49:14.749Z,61.92
2022-10-24T15:51:47.433Z,61.91
2022-10-24T15:54:19.349Z,61.87
2022-10-24T15:56:46.505Z,61.76
2022-10-24T15:59:13.540Z,61.73
2022-10-24T16:01:53.766Z,61.72
2022-10-24T16:04:23.230Z,61.73
2022-10-24T16:06:56.830Z,61.77
2022-10-24T16:09:31.413Z,61.80
2022-10-24T16:12:05.765Z,61.77
2022-10-24T16:14:33.309Z,61.77
2022-10-24T16:17:00.658Z,61.76
2022-10-24T16:19:28.013Z,61.79
2022-10-24T16:21:58.965Z,61.84
2022-10-24T16:24:28.071Z,61.96
2022-10-24T16:26:55.608Z,61.93
2022-10-24T16:29:22.759Z,61.86
2022-10-24T16:31:51.143Z,61.84
2022-10-24T16:34:18.049Z,61.70
2022-10-24T16:36:45.841Z,61.69
2022-10-24T16:39:14.668Z,61.75
2022-10-24T16:41:46.601Z,61.75
2022-10-24T16:44:15.384Z,61.82
2022-10-24T16:46:42.340Z,61.80
2022-10-24T16:49:09.397Z,61.89
2022-10-24T16:51:39.276Z,61.96
2022-10-24T16:54:10.035Z,61.98
2022-10-24T16:56:37.883Z,62.09
2022-10-24T16:59:05.050Z,62.17
2022-10-24T17:01:32.198Z,62.33
2022-10-24T17:04:03.240Z,62.39
2022-10-24T17:06:30.586Z,62.43
2022-10-24T17:08:59.584Z,62.44
2022-10-24T17:11:44.381Z,62.27
2022-10-24T17:14:16.702Z,62.28
2022-10-24T17:16:44.587Z,62.16
2022-10-24T17:19:16.463Z,62.22
2022-10-24T17:21:49.106Z,62.10
2022-10-24T17:24:18.906Z,62.15
2022-10-24T17:26:47.256Z,62.15
2022-10-24T17:29:30.136Z,62.04
2022-10-24T17:31:58.931Z,62.06
2022-10-24T17:34:26.791Z,62.12
2022-10-24T17:37:18.756Z,62.08
2022-10-24T17:40:05.376Z,62.16
2022-10-24T17:42:34.755Z,62.19
2022-10-24T17:45:02.708Z,62.09
2022-10-24T17:47:29.849Z,62.25
2022-10-24T17:49:57.002Z,62.15
2022-10-24T17:52:25.129Z,62.17
2022-10-24T17:54:52.330Z,62.02
2022-10-24T17:57:19.370Z,62.10
2022-10-24T17:59:46.335Z,62.04
2022-10-24T18:02:16.801Z,61.98
2022-10-24T18:04:45.750Z,62.03
2022-10-24T18:07:12.904Z,62.14
2022-10-24T18:09:40.367Z,62.03
2022-10-24T18:12:07.719Z,62.04
2022-10-24T18:14:37.554Z,62.01
2022-10-24T18:17:06.194Z,62.11
2022-10-24T18:19:33.663Z,62.13
2022-10-24T18:22:01.436Z,62.10
2022-10-24T18:24:29.092Z,61.99
2022-10-24T18:26:56.251Z,61.97
2022-10-24T18:29:23.396Z,61.96
2022-10-24T18:31:50.544Z,61.84
2022-10-24T18:34:20.767Z,61.80
2022-10-24T18:36:47.918Z,61.77
2022-10-24T18:39:15.676Z,61.74
2022-10-24T18:42:14.171Z,61.76
2022-10-24T18:44:42.149Z,61.83
2022-10-24T18:47:20.811Z,61.72
2022-10-24T18:49:50.772Z,61.73
2022-10-24T18:52:37.891Z,61.77
2022-10-24T18:55:18.769Z,61.87
2022-10-24T18:57:47.290Z,61.87
2022-10-24T19:00:29.385Z,61.90
2022-10-24T19:03:16.666Z,61.86
2022-10-24T19:05:51.992Z,61.84
2022-10-24T19:08:25.116Z,61.74
2022-10-24T19:10:55.272Z,61.75
2022-10-24T19:13:24.319Z,61.66
2022-10-24T19:16:00.334Z,61.66
2022-10-24T19:18:30.893Z,61.72
2022-10-24T19:20:59.373Z,61.70
2022-10-24T19:23:27.440Z,61.96
2022-10-24T19:25:54.538Z,61.90
2022-10-24T19:28:22.114Z,61.92
2022-10-24T19:30:52.280Z,62.00
2022-10-24T19:33:19.332Z,62.04
2022-10-24T19:35:47.820Z,62.30
2022-10-24T19:38:18.536Z,62.66
2022-10-24T19:40:52.213Z,62.78
2022-10-24T19:43:25.953Z,62.67
2022-10-24T19:46:07.813Z,62.66
2022-10-24T19:48:43.289Z,62.77
2022-10-24T19:51:13.366Z,62.70
2022-10-24T19:53:43.525Z,62.72
2022-10-24T19:56:23.899Z,62.74
2022-10-24T19:58:54.521Z,62.79
2022-10-24T20:01:25.285Z,62.75
2022-10-24T20:03:57.851Z,62.83
2022-10-24T20:06:26.639Z,62.99
2022-10-24T20:08:57.023Z,63.15
2022-10-24T20:11:44.270Z,63.19
2022-10-24T20:14:14.555Z,63.08
2022-10-24T20:16:43.786Z,62.94
2022-10-24T20:19:10.840Z,63.00
2022-10-24T20:21:39.462Z,62.96
2022-10-24T20:24:06.773Z,62.96
2022-10-24T20:26:36.384Z,62.97
2022-10-24T20:29:04.349Z,63.02
2022-10-24T20:31:32.526Z,63.08
2022-10-24T20:34:06.815Z,63.10
2022-10-24T20:36:47.409Z,63.26
2022-10-24T20:39:16.402Z,63.35
2022-10-24T20:41:43.756Z,63.35
2022-10-24T20:44:12.622Z,63.42
2022-10-24T20:46:44.482Z,63.33
2022-10-24T20:49:12.549Z,63.34
2022-10-24T20:51:42.393Z,63.23
2022-10-24T20:54:11.597Z,63.24
2022-10-24T20:56:42.273Z,63.24
2022-10-24T20:59:14.395Z,63.24
2022-10-24T21:01:41.746Z,63.30
2022-10-24T21:04:10.526Z,63.27
2022-10-24T21:06:37.966Z,63.33
2022-10-24T21:09:06.835Z,63.38
2022-10-24T21:11:35.070Z,63.37
2022-10-24T21:14:07.434Z,63.31
2022-10-24T21:16:37.860Z,63.22
2022-10-24T21:19:05.106Z,63.20
2022-10-24T21:21:32.154Z,63.17
2022-10-24T21:24:04.359Z,63.19
2022-10-24T21:26:39.982Z,63.14
2022-10-24T21:29:14.627Z,63.20
2022-10-24T21:31:56.707Z,63.28
2022-10-24T21:34:23.750Z,63.28
2022-10-24T21:36:50.695Z,63.34
2022-10-24T21:39:18.149Z,63.48
2022-10-24T21:41:46.544Z,63.47
2022-10-24T21:44:14.806Z,63.45
2022-10-24T21:46:41.957Z,63.38
2022-10-24T21:49:09.511Z,63.26
2022-10-24T21:51:38.718Z,63.29
2022-10-24T21:54:14.681Z,63.28
2022-10-24T21:56:41.716Z,63.30
2022-10-24T21:59:13.273Z,63.25
2022-10-24T22:01:41.043Z,63.21
2022-10-24T22:04:09.899Z,63.24
2022-10-24T22:06:39.019Z,63.30
2022-10-24T22:09:08.539Z,63.40
2022-10-24T22:11:36.635Z,63.32
2022-10-24T22:14:06.406Z,63.28
2022-10-24T22:16:34.898Z,63.30
2022-10-24T22:19:05.221Z,63.21
2022-10-24T22:21:36.994Z,63.15
2022-10-24T22:24:16.120Z,63.12
2022-10-24T22:26:43.156Z,63.12
2022-10-24T22:29:13.810Z,63.12
2022-10-24T22:31:41.344Z,63.06
2022-10-24T22:34:11.156Z,63.14
2022-10-24T22:36:48.751Z,63.32
2022-10-24T22:39:18.874Z,63.21
2022-10-24T22:41:47.117Z,63.22
2022-10-24T22:44:16.953Z,63.27
2022-10-24T22:47:06.024Z,63.27
2022-10-24T22:49:36.006Z,63.16
2022-10-24T22:52:04.013Z,63.11
2022-10-24T22:54:35.664Z,63.08
2022-10-24T22:57:04.262Z,63.09
2022-10-24T22:59:32.863Z,63.08
2022-10-24T23:02:18.406Z,63.16
2022-10-24T23:05:04.536Z,63.12
2022-10-24T23:07:54.809Z,63.24
2022-10-24T23:10:25.415Z,63.25
2022-10-24T23:12:55.807Z,63.28
2022-10-24T23:15:26.597Z,63.18
2022-10-24T23:17:54.769Z,63.17
2022-10-24T23:20:21.625Z,63.19
2022-10-24T23:22:58.106Z,63.08
2022-10-24T23:25:37.232Z,63.12
2022-10-24T23:28:24.969Z,63.11
2022-10-24T23:30:52.650Z,63.11
2022-10-24T23:33:27.800Z,63.14
2022-10-24T23:35:58.692Z,63.04
2022-10-24T23:38:33.246Z,63.08
2022-10-24T23:41:00.884Z,63.16
2022-10-24T23:43:29.481Z,63.22
2022-10-24T23:46:03.277Z,63.18
2022-10-24T23:48:33.486Z,63.14
2022-10-24T23:51:12.408Z,62.99
2022-10-24T23:53:55.667Z,63.06
2022-10-24T23:56:33.060Z,62.94
2022-10-24T23:59:00.080Z,62.94
